Time;durP1;ratioP1;P1;durP2;ratioP2;P2;SDS_P1;SDS_P2;PMS_P1;PMS_P2;Temp;Humidity;BMP_temperature;BMP_pressure;BME280_temperature;BME280_humidity;BME280_pressure;Samples;Min_cycle;Max_cycle;Signal;HPM_P1;HPM_P2
2022/04/09 00:00:17;;;;;;;7.50;1.92;;;4.60;1.00;;;;;;5043482;28;20040;-90
2022/04/09 00:02:43;;;;;;;7.43;1.60;;;4.60;99.90;;;;;;5041492;28;20576;-91
2022/04/09 00:05:12;;;;;;;9.95;1.88;;;4.60;99.90;;;;;;5058173;28;20072;-91
2022/04/09 00:07:38;;;;;;;8.90;2.08;;;4.50;99.90;;;;;;5042338;28;20125;-91
2022/04/09 00:10:06;;;;;;;11.70;2.25;;;4.50;99.90;;;;;;5041501;28;20131;-90
2022/04/09 00:12:33;;;;;;;7.50;1.75;;;4.40;1.00;;;;;;5059073;28;20044;-90
2022/04/09 00:14:58;;;;;;;6.65;2.30;;;4.30;1.00;;;;;;5041823;28;20062;-91
2022/04/09 00:17:25;;;;;;;3.65;1.50;;;4.30;1.00;;;;;;5042353;28;20479;-90
2022/04/09 00:19:57;;;;;;;5.43;1.60;;;4.20;1.00;;;;;;5043650;28;20046;-90
2022/04/09 00:22:22;;;;;;;6.53;2.15;;;4.30;1.00;;;;;;5042661;28;20233;-89
2022/04/09 00:24:48;;;;;;;11.52;2.42;;;4.20;1.00;;;;;;5059175;28;20043;-91
2022/04/09 00:27:13;;;;;;;11.18;2.35;;;4.20;1.00;;;;;;5041120;28;20402;-92
2022/04/09 00:29:39;;;;;;;7.68;1.80;;;4.20;1.00;;;;;;5061539;28;20529;-89
2022/04/09 00:32:05;;;;;;;5.03;2.03;;;4.20;1.00;;;;;;5044666;28;20025;-90
2022/04/09 00:34:31;;;;;;;8.55;2.13;;;4.30;1.00;;;;;;5045758;28;20048;-91
2022/04/09 00:36:57;;;;;;;8.55;1.88;;;4.20;1.00;;;;;;5046038;28;20070;-90
2022/04/09 00:39:24;;;;;;;7.88;2.38;;;4.30;1.00;;;;;;5045378;28;20047;-90
2022/04/09 00:41:50;;;;;;;8.23;3.20;;;4.30;1.00;;;;;;5047012;28;20095;-90
2022/04/09 00:44:17;;;;;;;9.20;2.20;;;4.30;99.90;;;;;;5046774;28;20111;-90
2022/04/09 00:46:44;;;;;;;7.45;2.13;;;4.40;99.90;;;;;;5046349;28;20025;-90
2022/04/09 00:49:10;;;;;;;7.70;2.63;;;4.40;99.90;;;;;;5045915;28;20043;-89
2022/04/09 00:51:39;;;;;;;7.88;2.08;;;4.50;99.90;;;;;;5062026;28;20066;-90
2022/04/09 00:54:06;;;;;;;6.75;2.05;;;4.60;99.90;;;;;;5044668;28;20105;-89
2022/04/09 00:56:33;;;;;;;7.78;1.60;;;4.70;91.10;;;;;;5055559;28;20036;-89
2022/04/09 00:59:02;;;;;;;6.00;1.77;;;4.70;99.90;;;;;;5045943;28;20045;-89
2022/04/09 01:01:32;;;;;;;4.10;1.38;;;4.50;99.90;;;;;;5044813;28;20044;-91
2022/04/09 01:03:59;;;;;;;3.40;1.20;;;4.40;99.90;;;;;;5062305;28;20044;-92
2022/04/09 01:06:25;;;;;;;6.35;1.20;;;4.40;99.90;;;;;;5043624;28;20071;-91
2022/04/09 01:08:51;;;;;;;4.57;1.40;;;4.30;99.90;;;;;;5043949;28;20072;-91
2022/04/09 01:11:17;;;;;;;6.68;1.48;;;4.30;99.90;;;;;;5045274;28;20527;-90
2022/04/09 01:13:44;;;;;;;4.22;1.02;;;4.30;99.90;;;;;;5047191;28;20064;-90
2022/04/09 01:16:11;;;;;;;6.50;1.48;;;4.30;99.90;;;;;;5062235;28;20040;-90
2022/04/09 01:18:37;;;;;;;3.55;1.20;;;4.20;99.90;;;;;;5046613;28;20040;-90
2022/04/09 01:21:04;;;;;;;8.48;1.67;;;4.30;1.00;;;;;;5062346;28;20059;-89
2022/04/09 01:23:30;;;;;;;4.78;1.95;;;4.40;99.90;;;;;;5061708;28;20105;-90
2022/04/09 01:25:58;;;;;;;4.97;1.58;;;4.40;1.00;;;;;;5063168;28;20602;-91
2022/04/09 01:28:28;;;;;;;12.50;1.75;;;4.40;1.00;;;;;;5045528;28;20119;-90
2022/04/09 01:30:54;;;;;;;6.53;1.77;;;4.40;1.00;;;;;;5060271;28;20382;-90
2022/04/09 01:33:21;;;;;;;5.88;1.40;;;4.30;8.00;;;;;;5045905;28;20530;-90
2022/04/09 01:35:48;;;;;;;6.18;1.98;;;4.30;99.90;;;;;;5044937;28;20094;-91
2022/04/09 01:38:15;;;;;;;10.55;1.70;;;4.30;99.90;;;;;;5044718;28;20040;-90
2022/04/09 01:40:41;;;;;;;6.25;1.70;;;4.30;99.90;;;;;;5059643;28;20041;-90
2022/04/09 01:43:07;;;;;;;10.23;2.00;;;4.20;99.90;;;;;;5045247;28;20459;-91
2022/04/09 01:45:34;;;;;;;7.68;2.08;;;4.20;99.90;;;;;;5045864;28;20495;-90
2022/04/09 01:47:59;;;;;;;12.57;2.20;;;4.10;99.90;;;;;;5057797;28;20715;-90
2022/04/09 01:50:29;;;;;;;7.32;1.77;;;4.00;99.90;;;;;;5061426;28;20153;-91
2022/04/09 01:52:56;;;;;;;6.97;1.50;;;3.90;99.90;;;;;;5061645;28;20565;-91
2022/04/09 01:55:22;;;;;;;6.72;1.77;;;3.80;99.90;;;;;;5043793;28;20048;-90
2022/04/09 01:57:48;;;;;;;8.50;2.65;;;3.70;1.00;;;;;;5046926;28;20071;-90
2022/04/09 02:00:16;;;;;;;7.88;2.28;;;3.60;1.00;;;;;;5041611;28;20434;-90
2022/04/09 02:02:43;;;;;;;6.25;2.00;;;3.50;15.90;;;;;;5045918;28;20051;-91
2022/04/09 02:05:11;;;;;;;10.02;2.25;;;3.50;86.00;;;;;;5046741;28;20029;-90
2022/04/09 02:07:44;;;;;;;7.88;1.90;;;3.50;99.90;;;;;;5056702;28;20032;-89
2022/04/09 02:10:10;;;;;;;5.93;2.00;;;3.50;99.90;;;;;;5042924;28;20057;-90
2022/04/09 02:12:37;;;;;;;7.80;2.08;;;3.50;99.90;;;;;;5040479;28;20131;-90
2022/04/09 02:15:11;;;;;;;7.03;2.67;;;3.60;99.90;;;;;;5046072;28;20099;-90
2022/04/09 02:17:38;;;;;;;8.90;2.10;;;3.60;99.90;;;;;;5044113;28;20048;-90
2022/04/09 02:20:06;;;;;;;5.95;1.73;;;3.80;99.90;;;;;;5044522;28;20055;-89
2022/04/09 02:22:40;;;;;;;5.55;1.90;;;3.80;99.90;;;;;;5041101;28;20051;-91
2022/04/09 02:25:09;;;;;;;6.38;1.77;;;3.80;99.90;;;;;;5042856;28;20085;-91
2022/04/09 02:27:34;;;;;;;6.85;1.80;;;3.90;27.00;;;;;;5044468;28;20052;-90
2022/04/09 02:30:01;;;;;;;7.22;1.80;;;3.90;94.00;;;;;;5043009;28;20106;-90
2022/04/09 02:32:27;;;;;;;6.65;1.92;;;3.90;99.90;;;;;;5043988;28;20495;-91
2022/04/09 02:34:54;;;;;;;6.35;1.75;;;3.80;99.90;;;;;;5044339;28;20028;-90
2022/04/09 02:37:20;;;;;;;6.20;2.60;;;3.70;94.10;;;;;;5044241;28;20281;-91
2022/04/09 02:39:46;;;;;;;12.40;2.28;;;3.60;99.90;;;;;;5043119;28;20264;-91
2022/04/09 02:42:12;;;;;;;12.18;2.90;;;3.50;99.90;;;;;;5044090;28;20082;-90
2022/04/09 02:44:39;;;;;;;8.90;2.25;;;3.50;99.90;;;;;;5045419;28;20067;-90
2022/04/09 02:47:05;;;;;;;7.95;2.13;;;3.40;99.90;;;;;;5043191;28;20107;-90
2022/04/09 02:49:31;;;;;;;10.90;2.38;;;3.40;99.90;;;;;;5045614;28;20028;-91
2022/04/09 02:51:57;;;;;;;10.48;2.20;;;3.40;99.90;;;;;;5043411;28;20032;-90
2022/04/09 02:54:23;;;;;;;8.05;2.05;;;3.30;99.90;;;;;;5042345;28;20037;-90
2022/04/09 02:56:48;;;;;;;6.82;1.70;;;3.40;99.90;;;;;;5045463;28;20656;-91
2022/04/09 02:59:14;;;;;;;6.75;1.60;;;3.30;99.90;;;;;;5044111;28;20127;-91
2022/04/09 03:01:42;;;;;;;6.88;2.00;;;3.30;99.90;;;;;;5043777;28;20052;-90
2022/04/09 03:04:08;;;;;;;7.07;3.03;;;3.30;99.90;;;;;;5042822;28;20048;-91
2022/04/09 03:06:37;;;;;;;8.70;1.85;;;3.30;99.90;;;;;;5042309;28;20040;-91
2022/04/09 03:09:03;;;;;;;4.15;1.77;;;3.30;99.90;;;;;;5042437;28;20036;-90
2022/04/09 03:11:29;;;;;;;8.60;1.65;;;3.30;99.90;;;;;;5044056;28;20040;-91
2022/04/09 03:13:55;;;;;;;6.00;1.70;;;3.40;99.90;;;;;;5044106;28;20359;-90
2022/04/09 03:16:20;;;;;;;10.32;2.03;;;3.50;99.90;;;;;;5044669;28;20048;-91
2022/04/09 03:18:46;;;;;;;6.95;1.58;;;3.50;99.90;;;;;;5043248;28;20555;-90
2022/04/09 03:21:12;;;;;;;7.40;1.63;;;3.70;99.90;;;;;;5042849;28;20123;-90
2022/04/09 03:23:42;;;;;;;11.10;2.20;;;3.70;99.90;;;;;;5041712;28;20120;-89
2022/04/09 03:26:07;;;;;;;9.02;2.00;;;3.70;99.90;;;;;;5059503;28;20111;-90
2022/04/09 03:28:33;;;;;;;6.82;2.13;;;3.70;99.90;;;;;;5044231;28;20170;-90
2022/04/09 03:30:59;;;;;;;8.15;2.08;;;3.70;99.90;;;;;;5043354;28;20037;-91
2022/04/09 03:33:25;;;;;;;9.02;2.00;;;3.70;99.90;;;;;;5042286;28;20511;-90
2022/04/09 03:35:51;;;;;;;5.93;1.75;;;3.70;99.90;;;;;;5043012;28;20498;-90
2022/04/09 03:38:17;;;;;;;6.32;1.95;;;3.60;99.90;;;;;;5043065;28;21116;-91
2022/04/09 03:40:43;;;;;;;6.47;1.88;;;3.50;99.90;;;;;;5057808;28;20048;-91
2022/04/09 03:43:09;;;;;;;8.38;1.95;;;3.50;99.90;;;;;;5043854;28;20044;-91
2022/04/09 03:45:35;;;;;;;10.75;2.13;;;3.40;99.90;;;;;;5041734;28;20123;-90
2022/04/09 03:48:02;;;;;;;5.63;1.70;;;3.40;99.90;;;;;;5043826;28;20324;-90
2022/04/09 03:50:27;;;;;;;7.57;2.10;;;3.40;99.90;;;;;;5058276;28;20044;-90
2022/04/09 03:52:53;;;;;;;4.88;1.65;;;3.40;99.90;;;;;;5043546;28;20044;-90
2022/04/09 03:55:19;;;;;;;12.13;2.03;;;3.30;99.90;;;;;;5041854;28;20125;-91
2022/04/09 03:57:46;;;;;;;9.23;2.33;;;3.30;99.90;;;;;;5041657;28;20385;-91
2022/04/09 04:00:14;;;;;;;6.72;1.90;;;3.30;99.90;;;;;;5044327;28;20082;-90
2022/04/09 04:02:40;;;;;;;13.50;2.30;;;3.30;99.90;;;;;;5044194;28;20044;-91
2022/04/09 04:05:08;;;;;;;6.10;2.10;;;3.40;99.90;;;;;;5043048;28;20136;-91
2022/04/09 04:07:34;;;;;;;6.82;1.88;;;3.30;99.90;;;;;;5048165;28;20051;-91
2022/04/09 04:10:05;;;;;;;6.50;1.70;;;3.30;99.90;;;;;;5046749;28;20190;-92
2022/04/09 04:12:31;;;;;;;9.63;1.80;;;3.30;99.90;;;;;;5047433;28;20059;-92
2022/04/09 04:14:57;;;;;;;6.63;1.70;;;3.30;99.90;;;;;;5046435;28;20037;-90
2022/04/09 04:17:23;;;;;;;10.10;1.70;;;3.40;99.90;;;;;;5045668;28;20094;-91
2022/04/09 04:19:49;;;;;;;10.32;2.05;;;3.40;99.90;;;;;;5062548;28;20045;-91
2022/04/09 04:22:14;;;;;;;7.25;2.28;;;3.40;99.90;;;;;;5057560;28;20108;-91
2022/04/09 04:24:40;;;;;;;9.65;2.08;;;3.30;99.90;;;;;;5062414;28;20450;-90
2022/04/09 04:27:07;;;;;;;7.00;1.80;;;3.30;99.90;;;;;;5046504;28;20040;-90
2022/04/09 04:29:34;;;;;;;8.48;1.77;;;3.30;99.90;;;;;;5046236;28;20041;-91
2022/04/09 04:32:02;;;;;;;6.25;1.35;;;3.30;99.90;;;;;;5044417;28;20040;-91
2022/04/09 04:34:28;;;;;;;6.47;1.52;;;3.30;99.90;;;;;;5046051;28;20036;-90
2022/04/09 04:36:54;;;;;;;12.07;1.88;;;3.40;99.90;;;;;;5063271;28;20202;-91
2022/04/09 04:39:19;;;;;;;6.50;1.45;;;3.40;99.90;;;;;;5037609;28;20036;-90
2022/04/09 04:41:45;;;;;;;4.95;1.35;;;3.50;99.90;;;;;;5046933;28;20085;-90
2022/04/09 04:44:13;;;;;;;6.22;1.45;;;3.50;99.90;;;;;;5043537;28;20120;-89
2022/04/09 04:46:41;;;;;;;6.65;1.50;;;3.40;99.90;;;;;;5045373;28;20125;-91
2022/04/09 04:49:07;;;;;;;5.05;1.75;;;3.40;99.90;;;;;;5046147;28;20036;-91
2022/04/09 04:51:32;;;;;;;8.00;1.63;;;3.40;99.90;;;;;;5045448;28;20086;-91
2022/04/09 04:54:01;;;;;;;8.35;1.50;;;3.30;76.00;;;;;;5062475;28;20048;-90
2022/04/09 04:56:29;;;;;;;4.75;1.52;;;3.30;99.90;;;;;;5045371;28;20407;-91
2022/04/09 04:58:55;;;;;;;9.02;1.63;;;3.30;99.90;;;;;;5071057;28;20111;-91
2022/04/09 05:01:20;;;;;;;6.50;1.50;;;3.30;97.60;;;;;;5043122;28;20078;-91
2022/04/09 05:03:46;;;;;;;7.15;1.70;;;3.40;64.70;;;;;;5042733;28;20041;-90
2022/04/09 05:06:12;;;;;;;5.70;1.40;;;3.40;1.00;;;;;;5044104;28;20165;-90
2022/04/09 05:08:40;;;;;;;4.03;1.33;;;3.40;1.00;;;;;;5040009;28;20161;-91
2022/04/09 05:11:06;;;;;;;3.38;1.38;;;3.40;1.00;;;;;;5042824;28;20558;-90
2022/04/09 05:13:32;;;;;;;5.90;1.48;;;3.40;99.90;;;;;;5040364;28;20131;-90
2022/04/09 05:15:58;;;;;;;3.80;1.10;;;3.50;99.90;;;;;;5042080;28;20311;-89
2022/04/09 05:18:24;;;;;;;7.68;1.70;;;3.50;99.90;;;;;;5040372;28;20082;-91
2022/04/09 05:20:51;;;;;;;3.35;1.30;;;3.50;1.00;;;;;;5058729;28;20037;-90
2022/04/09 05:23:17;;;;;;;7.60;1.40;;;3.40;1.00;;;;;;5037845;28;20062;-90
2022/04/09 05:25:43;;;;;;;5.13;1.75;;;3.60;1.00;;;;;;5058895;28;20040;-91
2022/04/09 05:28:08;;;;;;;8.93;1.70;;;3.60;1.00;;;;;;5040839;28;20049;-90
2022/04/09 05:30:35;;;;;;;6.15;1.42;;;3.70;1.00;;;;;;5043042;28;20052;-90
2022/04/09 05:33:01;;;;;;;9.02;1.80;;;3.70;1.00;;;;;;5059666;28;20075;-90
2022/04/09 05:35:27;;;;;;;7.63;1.90;;;3.70;1.00;;;;;;5043370;28;20071;-90
2022/04/09 05:37:53;;;;;;;8.20;1.67;;;3.80;64.90;;;;;;5043072;28;20515;-90
2022/04/09 05:40:19;;;;;;;8.55;2.20;;;3.90;1.00;;;;;;5043836;28;20105;-90
2022/04/09 05:42:45;;;;;;;7.53;1.85;;;3.80;1.00;;;;;;5044848;28;20101;-90
2022/04/09 05:45:12;;;;;;;10.48;1.98;;;3.80;6.00;;;;;;5046125;28;20063;-90
2022/04/09 05:47:42;;;;;;;4.28;1.67;;;3.80;1.00;;;;;;5046133;28;20040;-89
2022/04/09 05:50:11;;;;;;;9.00;1.95;;;3.90;1.00;;;;;;5046819;28;20066;-90
2022/04/09 05:52:37;;;;;;;13.13;1.80;;;4.10;1.00;;;;;;5060230;28;20285;-90
2022/04/09 05:55:05;;;;;;;7.75;1.63;;;4.20;1.00;;;;;;5061526;28;20274;-91
2022/04/09 05:57:34;;;;;;;9.35;1.90;;;4.30;99.90;;;;;;5061334;28;20072;-90
2022/04/09 06:00:00;;;;;;;5.18;1.55;;;4.40;99.90;;;;;;5044744;28;20052;-90
2022/04/09 06:02:26;;;;;;;7.05;1.88;;;4.40;99.90;;;;;;5061797;28;20151;-90
2022/04/09 06:04:51;;;;;;;8.40;2.10;;;4.30;1.00;;;;;;5044525;28;20127;-90
2022/04/09 06:07:17;;;;;;;12.45;2.15;;;4.30;1.00;;;;;;5043490;28;20048;-90
2022/04/09 06:09:44;;;;;;;8.00;2.33;;;4.30;1.00;;;;;;5059979;28;20511;-91
2022/04/09 06:12:13;;;;;;;9.27;2.13;;;4.30;1.00;;;;;;5045372;28;20124;-89
2022/04/09 06:14:38;;;;;;;8.40;1.98;;;4.30;1.00;;;;;;5043351;28;20091;-90
2022/04/09 06:17:04;;;;;;;6.47;1.98;;;4.30;16.80;;;;;;5044278;28;20032;-89
2022/04/09 06:19:31;;;;;;;9.25;2.22;;;4.30;10.00;;;;;;5043738;28;20155;-91
2022/04/09 06:21:57;;;;;;;12.82;2.75;;;4.40;1.00;;;;;;5057280;28;20035;-91
2022/04/09 06:24:23;;;;;;;12.10;2.28;;;4.50;1.00;;;;;;5062165;28;20047;-91
2022/04/09 06:26:48;;;;;;;7.35;2.05;;;4.60;99.90;;;;;;5045277;28;20665;-90
2022/04/09 06:29:15;;;;;;;10.63;2.30;;;4.80;99.90;;;;;;5041967;28;20540;-88
2022/04/09 06:31:40;;;;;;;10.40;2.47;;;4.90;99.90;;;;;;5043447;28;20096;-91
2022/04/09 06:34:06;;;;;;;10.32;2.10;;;5.10;99.90;;;;;;5061106;28;20495;-90
2022/04/09 06:36:32;;;;;;;6.93;1.90;;;5.20;99.90;;;;;;5044079;28;20424;-90
2022/04/09 06:38:57;;;;;;;10.80;2.47;;;5.30;52.80;;;;;;5043195;28;20275;-90
2022/04/09 06:41:24;;;;;;;9.25;2.33;;;5.50;99.90;;;;;;5042794;28;20036;-90
2022/04/09 06:43:50;;;;;;;8.50;2.00;;;5.60;1.00;;;;;;5042594;28;20056;-90
2022/04/09 06:46:16;;;;;;;11.85;2.53;;;5.70;1.00;;;;;;5045848;28;20135;-90
2022/04/09 06:48:45;;;;;;;13.35;2.70;;;5.70;1.00;;;;;;5044626;28;20147;-90
2022/04/09 06:51:10;;;;;;;13.80;2.85;;;5.80;79.20;;;;;;5042155;28;20042;-89
2022/04/09 06:53:38;;;;;;;10.43;2.58;;;5.90;99.90;;;;;;5044489;28;20346;-90
2022/04/09 06:56:04;;;;;;;9.05;1.95;;;6.00;1.00;;;;;;5043108;28;20044;-90
2022/04/09 06:58:30;;;;;;;9.02;1.90;;;5.90;99.90;;;;;;5044088;28;20499;-90
2022/04/09 07:00:56;;;;;;;7.65;2.15;;;5.90;99.90;;;;;;5043856;28;20119;-89
2022/04/09 07:03:21;;;;;;;16.48;2.40;;;6.00;1.00;;;;;;5042643;28;20037;-90
2022/04/09 07:05:47;;;;;;;9.13;2.00;;;6.10;99.90;;;;;;5061584;28;20096;-90
2022/04/09 07:08:13;;;;;;;8.85;2.22;;;6.20;99.90;;;;;;5042180;28;20529;-89
2022/04/09 07:10:39;;;;;;;9.05;2.60;;;6.40;99.90;;;;;;5056516;28;20057;-90
2022/04/09 07:13:08;;;;;;;5.88;1.90;;;6.60;99.90;;;;;;5044184;28;20037;-90
2022/04/09 07:15:34;;;;;;;9.00;1.92;;;6.80;85.20;;;;;;5042773;28;20079;-89
2022/04/09 07:18:00;;;;;;;7.00;2.05;;;6.90;1.00;;;;;;5042827;28;20210;-89
2022/04/09 07:20:35;;;;;;;8.15;1.95;;;6.90;1.00;;;;;;5060802;28;20500;-90
2022/04/09 07:23:02;;;;;;;8.05;2.60;;;7.20;99.90;;;;;;5059823;28;20230;-89
2022/04/09 07:25:29;;;;;;;8.95;1.83;;;7.40;99.90;;;;;;5042493;28;20105;-90
2022/04/09 07:27:55;;;;;;;9.13;1.73;;;7.30;99.90;;;;;;5040451;28;20052;-89
2022/04/09 07:30:21;;;;;;;10.27;1.70;;;7.10;99.90;;;;;;5044553;28;20044;-90
2022/04/09 07:32:48;;;;;;;7.30;1.73;;;7.10;99.90;;;;;;5060269;28;20049;-88
2022/04/09 07:35:15;;;;;;;8.10;1.70;;;7.00;99.90;;;;;;5060488;28;20050;-90
2022/04/09 07:37:42;;;;;;;7.93;1.92;;;7.10;99.90;;;;;;5040487;28;20068;-89
2022/04/09 07:40:10;;;;;;;5.80;1.50;;;7.20;99.90;;;;;;5052918;28;20040;-89
2022/04/09 07:42:36;;;;;;;6.63;1.42;;;7.40;99.90;;;;;;5042495;28;20136;-91
2022/04/09 07:45:03;;;;;;;6.07;1.50;;;7.30;99.90;;;;;;5045369;28;20040;-89
2022/04/09 07:47:30;;;;;;;10.40;1.80;;;7.20;99.90;;;;;;5057593;28;20036;-89
2022/04/09 07:49:55;;;;;;;8.43;1.80;;;6.90;88.40;;;;;;5057914;28;20082;-90
2022/04/09 07:52:21;;;;;;;7.55;1.85;;;6.70;99.90;;;;;;5042023;28;20040;-90
2022/04/09 07:54:46;;;;;;;8.88;1.73;;;6.80;99.90;;;;;;5042167;28;20040;-91
2022/04/09 07:57:12;;;;;;;5.72;1.15;;;6.90;99.90;;;;;;5042277;28;20037;-92
2022/04/09 07:59:38;;;;;;;3.78;1.20;;;6.90;99.90;;;;;;5042136;28;20051;-90
2022/04/09 08:02:04;;;;;;;13.70;2.25;;;7.00;99.90;;;;;;5043309;28;20270;-90
2022/04/09 08:04:30;;;;;;;6.38;1.52;;;7.10;99.90;;;;;;5044540;28;20040;-89
2022/04/09 08:06:55;;;;;;;10.70;1.85;;;7.40;99.90;;;;;;5058780;28;20036;-90
2022/04/09 08:09:21;;;;;;;9.63;2.20;;;7.50;99.90;;;;;;5042160;28;20084;-90
2022/04/09 08:11:47;;;;;;;9.32;1.92;;;7.70;99.90;;;;;;5041785;28;20428;-89
2022/04/09 08:14:12;;;;;;;7.80;1.70;;;7.90;99.90;;;;;;5060228;28;20108;-90
2022/04/09 08:16:38;;;;;;;7.10;1.70;;;7.60;99.90;;;;;;5042999;28;20036;-89
2022/04/09 08:19:05;;;;;;;8.48;1.83;;;7.90;99.90;;;;;;5043887;28;20412;-89
2022/04/09 08:21:30;;;;;;;7.90;1.67;;;8.30;99.90;;;;;;5043109;28;20051;-89
2022/04/09 08:23:56;;;;;;;8.90;2.95;;;8.30;99.90;;;;;;5038931;28;20036;-89
2022/04/09 08:26:22;;;;;;;7.85;1.92;;;8.00;99.90;;;;;;5042757;28;20589;-88
2022/04/09 08:28:48;;;;;;;6.40;1.60;;;7.80;99.90;;;;;;5042330;28;20311;-88
2022/04/09 08:31:13;;;;;;;6.25;1.52;;;7.50;99.90;;;;;;5041248;28;20029;-90
2022/04/09 08:33:42;;;;;;;5.78;1.40;;;8.00;99.90;;;;;;5041423;28;20524;-89
2022/04/09 08:36:08;;;;;;;9.18;1.70;;;8.10;99.90;;;;;;5041567;28;20036;-89
2022/04/09 08:38:33;;;;;;;10.95;1.95;;;8.40;99.90;;;;;;5043811;28;20036;-90
2022/04/09 08:41:04;;;;;;;10.80;1.73;;;8.60;55.50;;;;;;5058198;28;20038;-90
2022/04/09 08:43:30;;;;;;;8.38;1.65;;;8.80;75.00;;;;;;5041851;28;20108;-90
2022/04/09 08:46:00;;;;;;;10.45;1.83;;;8.60;67.60;;;;;;5058747;28;20097;-89
2022/04/09 08:48:27;;;;;;;9.10;1.90;;;8.30;99.90;;;;;;5041775;28;20116;-90
2022/04/09 08:50:54;;;;;;;10.65;2.03;;;7.90;86.80;;;;;;5041609;28;20101;-90
2022/04/09 08:53:19;;;;;;;7.55;1.70;;;8.10;99.10;;;;;;5044908;28;20049;-90
2022/04/09 08:55:47;;;;;;;10.35;2.95;;;8.40;50.40;;;;;;5044508;28;20048;-89
2022/04/09 08:58:12;;;;;;;9.65;1.80;;;8.70;91.10;;;;;;5062891;28;20130;-90
2022/04/09 09:00:38;;;;;;;11.93;2.08;;;8.70;88.50;;;;;;5045333;28;20464;-89
2022/04/09 09:03:05;;;;;;;8.50;1.67;;;8.60;24.90;;;;;;5045517;28;20032;-90
2022/04/09 09:05:40;;;;;;;11.77;2.35;;;8.80;87.40;;;;;;5047176;28;20075;-90
2022/04/09 09:08:08;;;;;;;6.40;1.30;;;8.90;90.30;;;;;;5045640;28;20102;-89
2022/04/09 09:10:35;;;;;;;10.63;1.77;;;9.20;92.40;;;;;;5060391;28;20044;-89
2022/04/09 09:13:06;;;;;;;7.85;1.75;;;8.10;69.50;;;;;;5062948;28;20117;-86
2022/04/09 09:15:53;;;;;;;5.50;1.25;;;6.40;99.90;;;;;;5044284;28;20514;-87
2022/04/09 09:18:27;;;;;;;3.78;1.20;;;5.60;10.10;;;;;;5041164;28;20036;-89
2022/04/09 09:21:01;;;;;;;6.85;1.55;;;5.70;99.90;;;;;;5061980;28;20048;-90
2022/04/09 09:23:31;;;;;;;5.37;1.03;;;5.60;99.90;;;;;;5040441;28;20098;-89
2022/04/09 09:25:59;;;;;;;4.45;1.05;;;5.70;99.90;;;;;;5043151;28;20116;-89
2022/04/09 09:28:32;;;;;;;3.13;0.85;;;5.80;1.00;;;;;;5043852;28;20041;-90
2022/04/09 09:31:00;;;;;;;6.18;1.00;;;5.80;1.00;;;;;;5044552;28;20548;-90
2022/04/09 09:33:26;;;;;;;3.83;0.93;;;5.80;1.00;;;;;;5043399;28;20647;-89
2022/04/09 09:35:54;;;;;;;4.65;1.10;;;5.80;1.00;;;;;;5062613;28;20380;-90
2022/04/09 09:38:28;;;;;;;8.75;1.08;;;6.00;52.70;;;;;;5043586;28;20128;-89
2022/04/09 09:40:55;;;;;;;8.83;1.43;;;6.10;1.00;;;;;;5044253;28;20032;-89
2022/04/09 09:43:22;;;;;;;5.43;1.33;;;6.50;1.00;;;;;;5045211;28;20441;-89
2022/04/09 09:45:50;;;;;;;7.70;1.30;;;7.10;1.00;;;;;;5041891;28;20036;-90
2022/04/09 09:48:28;;;;;;;5.43;1.63;;;7.20;1.00;;;;;;5042343;28;20049;-89
2022/04/09 09:50:58;;;;;;;6.30;1.45;;;7.50;99.90;;;;;;5041988;28;20035;-89
2022/04/09 09:53:33;;;;;;;7.65;1.83;;;8.10;99.90;;;;;;5061503;28;20435;-90
2022/04/09 09:56:01;;;;;;;9.30;1.80;;;8.50;99.90;;;;;;5037511;28;20127;-89
2022/04/09 09:58:28;;;;;;;9.38;1.50;;;8.30;99.90;;;;;;5044596;28;20043;-89
2022/04/09 10:00:58;;;;;;;6.18;1.58;;;7.80;99.90;;;;;;5043605;28;20098;-88
2022/04/09 10:03:25;;;;;;;7.63;1.65;;;7.20;99.90;;;;;;5044138;28;20051;-90
2022/04/09 10:05:52;;;;;;;5.20;1.40;;;6.10;99.90;;;;;;5039378;28;20032;-88
2022/04/09 10:08:19;;;;;;;6.82;1.40;;;5.90;1.00;;;;;;5043386;28;20492;-88
2022/04/09 10:10:54;;;;;;;7.88;1.50;;;5.90;1.00;;;;;;5041663;28;20054;-88
2022/04/09 10:13:21;;;;;;;8.02;1.52;;;6.20;1.00;;;;;;5074342;28;20048;-88
2022/04/09 10:15:50;;;;;;;3.95;1.17;;;6.60;1.00;;;;;;5059976;28;20052;-88
2022/04/09 10:18:22;;;;;;;4.53;0.80;;;7.20;95.50;;;;;;5043868;28;20575;-89
2022/04/09 10:20:55;;;;;;;3.47;0.50;;;7.10;99.90;;;;;;5041656;28;20040;-89
2022/04/09 10:23:25;;;;;;;3.08;0.60;;;7.30;99.90;;;;;;5052636;28;20040;-88
2022/04/09 10:25:54;;;;;;;2.95;0.88;;;7.30;99.90;;;;;;5041792;28;20036;-89
2022/04/09 10:28:31;;;;;;;3.05;0.90;;;7.40;99.90;;;;;;5058470;28;20055;-89
2022/04/09 10:30:57;;;;;;;1.98;0.68;;;8.00;99.90;;;;;;5059647;28;20099;-90
2022/04/09 10:33:27;;;;;;;3.35;0.80;;;7.80;99.90;;;;;;5043707;28;20123;-89
2022/04/09 10:35:53;;;;;;;1.67;0.60;;;8.00;99.90;;;;;;5061523;28;20488;-89
2022/04/09 10:38:23;;;;;;;2.97;0.88;;;8.00;99.90;;;;;;5043069;28;20033;-90
2022/04/09 10:40:55;;;;;;;5.32;1.08;;;8.20;99.90;;;;;;5061774;28;20091;-88
2022/04/09 10:43:24;;;;;;;2.88;0.85;;;8.10;99.90;;;;;;5043856;28;20072;-89
2022/04/09 10:46:02;;;;;;;2.05;0.80;;;7.70;90.00;;;;;;5040206;28;20136;-88
2022/04/09 10:48:30;;;;;;;6.20;1.17;;;7.40;99.90;;;;;;5036709;28;20040;-89
2022/04/09 10:50:58;;;;;;;6.20;1.00;;;7.30;99.90;;;;;;5042849;28;20250;-89
2022/04/09 10:53:26;;;;;;;6.65;1.38;;;7.50;99.90;;;;;;5049136;28;20364;-89
2022/04/09 10:56:27;;;;;;;4.18;1.20;;;8.10;99.90;;;;;;5059912;28;20024;-90
2022/04/09 10:59:01;;;;;;;7.10;1.58;;;8.40;99.90;;;;;;5059916;28;20520;-90
2022/04/09 11:01:51;;;;;;;5.13;1.00;;;8.70;99.90;;;;;;5046504;28;20048;-89
2022/04/09 11:04:34;;;;;;;4.70;1.17;;;8.90;98.50;;;;;;5041869;28;20535;-88
2022/04/09 11:07:16;;;;;;;5.72;1.40;;;9.40;99.90;;;;;;5039344;28;20105;-90
2022/04/09 11:09:52;;;;;;;4.95;1.30;;;8.80;45.70;;;;;;5056509;28;20044;-89
2022/04/09 11:12:29;;;;;;;5.53;1.35;;;8.40;99.90;;;;;;5041810;28;20546;-88
2022/04/09 11:15:03;;;;;;;6.75;1.38;;;7.90;99.90;;;;;;5040499;28;20042;-90
2022/04/09 11:17:48;;;;;;;6.23;1.90;;;7.90;99.90;;;;;;5041835;28;20579;-90
2022/04/09 11:20:21;;;;;;;7.13;1.55;;;8.00;99.90;;;;;;5058442;28;20066;-89
2022/04/09 11:22:50;;;;;;;3.45;1.30;;;7.80;99.90;;;;;;5038142;28;20040;-89
2022/04/09 11:25:27;;;;;;;9.23;1.88;;;7.70;99.90;;;;;;5048283;28;20272;-90
2022/04/09 11:28:04;;;;;;;9.43;1.70;;;8.20;64.10;;;;;;5039898;28;20032;-90
2022/04/09 11:30:33;;;;;;;5.38;1.17;;;8.90;99.90;;;;;;5059805;28;20040;-89
2022/04/09 11:32:59;;;;;;;7.65;1.70;;;8.50;49.00;;;;;;5038757;28;20051;-89
2022/04/09 11:35:25;;;;;;;4.53;1.15;;;8.40;99.90;;;;;;5061175;28;20051;-89
2022/04/09 11:37:52;;;;;;;4.82;1.30;;;8.50;30.60;;;;;;5042465;28;20045;-90
2022/04/09 11:40:20;;;;;;;6.25;1.48;;;8.30;63.80;;;;;;5048415;28;20036;-89
2022/04/09 11:42:55;;;;;;;6.47;1.05;;;8.20;99.90;;;;;;5054540;28;20037;-89
2022/04/09 11:45:23;;;;;;;5.07;1.50;;;8.70;99.90;;;;;;5056507;28;20628;-90
2022/04/09 11:47:51;;;;;;;5.63;1.30;;;9.20;39.10;;;;;;5057061;28;20124;-89
2022/04/09 11:50:17;;;;;;;7.88;1.38;;;10.20;99.90;;;;;;5042376;28;20040;-90
2022/04/09 11:52:43;;;;;;;3.78;1.20;;;10.10;1.00;;;;;;5040295;28;20040;-90
2022/04/09 11:55:14;;;;;;;7.05;1.65;;;9.80;1.00;;;;;;5035485;28;20617;-89
2022/04/09 11:57:51;;;;;;;7.18;1.48;;;8.00;99.90;;;;;;5053422;28;20040;-88
2022/04/09 12:00:17;;;;;;;9.45;1.77;;;7.30;99.90;;;;;;5050502;28;20058;-88
2022/04/09 12:02:43;;;;;;;7.93;1.73;;;7.20;99.90;;;;;;5032139;28;20048;-89
2022/04/09 12:05:11;;;;;;;8.02;1.42;;;7.60;99.90;;;;;;5031858;28;20056;-89
2022/04/09 12:07:44;;;;;;;7.95;1.38;;;7.80;99.90;;;;;;5038265;28;20059;-89
2022/04/09 12:10:28;;;;;;;3.22;1.00;;;7.30;99.90;;;;;;5054169;28;20084;-89
2022/04/09 12:13:02;;;;;;;4.95;1.30;;;7.10;99.90;;;;;;5034779;28;20365;-88
2022/04/09 12:15:33;;;;;;;6.75;1.83;;;6.70;99.90;;;;;;5036621;28;20047;-87
2022/04/09 12:18:06;;;;;;;8.68;1.38;;;6.50;99.90;;;;;;5038962;28;20127;-88
2022/04/09 12:20:44;;;;;;;6.90;1.52;;;7.30;99.90;;;;;;5052639;28;20037;-89
2022/04/09 12:23:09;;;;;;;8.23;2.03;;;8.20;99.90;;;;;;5039144;28;20050;-89
2022/04/09 12:25:42;;;;;;;5.68;0.90;;;9.00;99.90;;;;;;5036739;28;20032;-88
2022/04/09 12:28:28;;;;;;;4.95;0.85;;;9.60;48.00;;;;;;5057439;28;20135;-90
2022/04/09 12:30:56;;;;;;;4.20;0.90;;;9.50;94.40;;;;;;5042439;28;20041;-88
2022/04/09 12:33:23;;;;;;;3.13;0.60;;;9.30;17.30;;;;;;5036139;28;20033;-88
2022/04/09 12:35:52;;;;;;;5.68;1.13;;;9.80;1.00;;;;;;5061730;28;20040;-89
2022/04/09 12:38:39;;;;;;;4.07;1.00;;;10.20;95.70;;;;;;5062319;28;20538;-89
2022/04/09 12:41:06;;;;;;;3.05;0.90;;;9.70;1.00;;;;;;5059651;28;20037;-89
2022/04/09 12:43:37;;;;;;;3.40;0.77;;;9.60;1.00;;;;;;5046128;28;20334;-89
2022/04/09 12:46:12;;;;;;;3.60;0.80;;;9.30;1.00;;;;;;5044483;28;20052;-89
2022/04/09 12:48:46;;;;;;;4.43;0.80;;;9.80;1.00;;;;;;5061946;28;20051;-89
2022/04/09 12:51:14;;;;;;;2.28;0.90;;;9.10;1.00;;;;;;5062150;28;20036;-88
2022/04/09 12:53:43;;;;;;;4.80;1.05;;;8.90;1.00;;;;;;5042566;28;20494;-89
2022/04/09 12:56:11;;;;;;;3.63;1.10;;;9.20;1.00;;;;;;5047408;28;20044;-89
2022/04/09 12:58:37;;;;;;;5.38;1.02;;;9.40;1.00;;;;;;5043882;28;20253;-88
2022/04/09 13:01:08;;;;;;;2.90;1.00;;;9.40;1.00;;;;;;5061397;28;20044;-89